createdAt,value
2022-10-07T00:00:43.040Z,13.21
2022-10-07T00:02:45.655Z,13.24
2022-10-07T00:04:48.238Z,13.26
2022-10-07T00:06:50.993Z,13.31
2022-10-07T00:08:54.600Z,13.24
2022-10-07T00:10:57.294Z,13.23
2022-10-07T00:13:02.203Z,13.24
2022-10-07T00:15:05.739Z,13.25
2022-10-07T00:17:08.366Z,13.23
2022-10-07T00:19:13.027Z,13.26
2022-10-07T00:21:17.377Z,13.38
2022-10-07T00:23:19.942Z,13.30
2022-10-07T00:25:22.632Z,13.24
2022-10-07T00:27:25.296Z,13.20
2022-10-07T00:29:29.349Z,13.23
2022-10-07T00:31:34.165Z,13.23
2022-10-07T00:33:38.381Z,13.33
2022-10-07T00:35:40.992Z,13.29
2022-10-07T00:37:43.883Z,13.29
2022-10-07T00:39:46.783Z,13.28
2022-10-07T00:41:51.303Z,13.22
2022-10-07T00:43:53.207Z,13.21
2022-10-07T00:46:00.729Z,13.23
2022-10-07T00:48:03.451Z,13.25
2022-10-07T00:50:09.637Z,13.20
2022-10-07T00:52:13.347Z,13.27
2022-10-07T00:54:18.129Z,13.36
2022-10-07T00:56:20.800Z,13.37
2022-10-07T00:58:24.054Z,13.36
2022-10-07T01:00:26.609Z,13.39
2022-10-07T01:02:31.135Z,13.36
2022-10-07T01:04:34.395Z,13.32
2022-10-07T01:06:39.145Z,13.31
2022-10-07T01:08:43.190Z,13.36
2022-10-07T01:10:52.241Z,13.32
2022-10-07T01:13:05.439Z,13.23
2022-10-07T01:15:13.757Z,13.20
2022-10-07T01:17:26.447Z,13.20
2022-10-07T01:19:45.875Z,13.23
2022-10-07T01:22:00.646Z,13.21
2022-10-07T01:24:16.168Z,13.23
2022-10-07T01:26:57.299Z,13.20
2022-10-07T01:29:03.955Z,13.25
2022-10-07T01:31:08.272Z,13.20
2022-10-07T01:33:12.373Z,13.15
2022-10-07T01:35:18.912Z,13.12
2022-10-07T01:37:25.035Z,13.16
2022-10-07T01:39:32.773Z,13.20
2022-10-07T01:41:38.480Z,13.11
2022-10-07T01:43:43.336Z,13.16
2022-10-07T01:45:47.905Z,13.19
2022-10-07T01:47:51.020Z,13.22
2022-10-07T01:49:53.669Z,13.24
2022-10-07T01:52:13.962Z,13.16
2022-10-07T01:54:29.032Z,13.07
2022-10-07T01:56:47.236Z,13.19
2022-10-07T01:59:05.382Z,13.21
2022-10-07T02:01:18.291Z,13.17
2022-10-07T02:03:33.819Z,13.06
2022-10-07T02:05:46.301Z,13.02
2022-10-07T02:08:04.568Z,13.07
2022-10-07T02:10:15.903Z,13.00
2022-10-07T02:12:25.050Z,13.04
2022-10-07T02:14:38.409Z,13.09
2022-10-07T02:16:43.974Z,13.00
2022-10-07T02:18:50.436Z,12.96
2022-10-07T02:20:55.619Z,13.01
2022-10-07T02:23:00.755Z,13.09
2022-10-07T02:25:04.123Z,13.09
2022-10-07T02:27:11.789Z,13.03
2022-10-07T02:29:17.177Z,12.96
2022-10-07T02:31:24.609Z,12.94
2022-10-07T02:33:30.049Z,12.90
2022-10-07T02:35:38.640Z,12.90
2022-10-07T02:37:44.778Z,12.96
2022-10-07T02:39:47.706Z,12.97
2022-10-07T02:41:54.823Z,13.11
2022-10-07T02:44:03.957Z,13.05
2022-10-07T02:46:10.834Z,13.01
2022-10-07T02:48:21.422Z,12.94
2022-10-07T02:50:27.324Z,12.92
2022-10-07T02:52:33.049Z,12.95
2022-10-07T02:54:40.139Z,13.09
2022-10-07T02:56:43.762Z,13.06
2022-10-07T02:58:47.760Z,13.14
2022-10-07T03:00:53.041Z,13.19
2022-10-07T03:02:57.990Z,13.16
2022-10-07T03:05:02.045Z,13.18
2022-10-07T03:07:05.324Z,13.16
2022-10-07T03:09:07.941Z,13.15
2022-10-07T03:11:11.223Z,13.13
2022-10-07T03:13:15.529Z,13.22
2022-10-07T03:15:18.406Z,13.13
2022-10-07T03:17:21.209Z,13.09
2022-10-07T03:19:23.912Z,13.02
2022-10-07T03:21:27.911Z,12.87
2022-10-07T03:23:31.379Z,12.85
2022-10-07T03:25:36.480Z,12.99
2022-10-07T03:27:39.486Z,12.96
2022-10-07T03:29:42.159Z,13.00
2022-10-07T03:31:44.743Z,12.94
2022-10-07T03:33:47.375Z,12.97
2022-10-07T03:35:50.032Z,12.89
2022-10-07T03:37:54.156Z,12.68
2022-10-07T03:39:56.811Z,12.68
2022-10-07T03:41:59.435Z,12.63
2022-10-07T03:44:02.044Z,12.74
2022-10-07T03:46:04.789Z,12.68
2022-10-07T03:48:07.403Z,12.72
2022-10-07T03:50:10.429Z,12.75
2022-10-07T03:52:13.041Z,12.80
2022-10-07T03:54:17.179Z,12.76
2022-10-07T03:56:19.781Z,12.82
2022-10-07T03:58:22.641Z,12.83
2022-10-07T04:00:27.777Z,12.91
2022-10-07T04:02:30.490Z,12.83
2022-10-07T04:04:33.194Z,12.81
2022-10-07T04:06:35.903Z,12.84
2022-10-07T04:08:40.623Z,12.74
2022-10-07T04:10:44.549Z,12.73
2022-10-07T04:12:48.561Z,12.74
2022-10-07T04:14:51.348Z,12.75
2022-10-07T04:16:53.955Z,12.59
2022-10-07T04:18:56.846Z,12.62
2022-10-07T04:21:00.151Z,12.68
2022-10-07T04:23:02.732Z,12.55
2022-10-07T04:25:24.011Z,12.54
2022-10-07T04:27:50.518Z,12.65
2022-10-07T04:29:51.800Z,12.65
2022-10-07T04:31:54.841Z,12.60
2022-10-07T04:33:57.579Z,12.60
2022-10-07T04:36:05.507Z,12.64
2022-10-07T04:38:10.736Z,12.62
2022-10-07T04:40:13.305Z,12.64
2022-10-07T04:42:30.067Z,12.63
2022-10-07T04:44:33.992Z,12.67
2022-10-07T04:46:36.725Z,12.71
2022-10-07T04:48:39.529Z,12.61
2022-10-07T04:50:41.155Z,12.55
2022-10-07T04:52:44.530Z,12.63
2022-10-07T04:54:47.187Z,12.66
2022-10-07T04:56:50.511Z,12.63
2022-10-07T04:58:53.162Z,12.53
2022-10-07T05:01:00.564Z,12.62
2022-10-07T05:03:03.235Z,12.60
2022-10-07T05:05:06.746Z,12.60
2022-10-07T05:07:10.445Z,12.58
2022-10-07T05:09:13.105Z,12.59
2022-10-07T05:11:15.881Z,12.67
2022-10-07T05:13:18.608Z,12.65
2022-10-07T05:15:21.218Z,12.63
2022-10-07T05:17:25.690Z,12.63
2022-10-07T05:19:28.308Z,12.68
2022-10-07T05:21:30.907Z,12.65
2022-10-07T05:23:35.785Z,12.66
2022-10-07T05:25:38.583Z,12.68
2022-10-07T05:27:41.368Z,12.59
2022-10-07T05:29:43.999Z,12.68
2022-10-07T05:31:46.729Z,12.81
2022-10-07T05:33:50.739Z,12.68
2022-10-07T05:35:53.348Z,12.67
2022-10-07T05:37:56.232Z,12.70
2022-10-07T05:39:58.917Z,12.76
2022-10-07T05:42:01.716Z,12.77
2022-10-07T05:44:04.401Z,12.68
2022-10-07T05:46:08.867Z,12.73
2022-10-07T05:48:12.300Z,12.73
2022-10-07T05:50:16.604Z,12.80
2022-10-07T05:52:21.140Z,12.73
2022-10-07T05:54:24.295Z,12.91
2022-10-07T05:56:26.930Z,12.89
2022-10-07T05:58:29.549Z,12.84
2022-10-07T06:00:32.229Z,12.90
2022-10-07T06:02:36.231Z,12.80
2022-10-07T06:04:38.965Z,12.82
2022-10-07T06:06:42.935Z,12.78
2022-10-07T06:08:45.853Z,12.80
2022-10-07T06:11:07.400Z,12.89
2022-10-07T06:13:09.563Z,12.71
2022-10-07T06:15:12.730Z,12.82
2022-10-07T06:17:16.410Z,12.92
2022-10-07T06:19:22.608Z,12.88
2022-10-07T06:21:28.180Z,13.02
2022-10-07T06:23:33.400Z,13.06
2022-10-07T06:25:36.009Z,13.10
2022-10-07T06:27:38.691Z,13.36
2022-10-07T06:29:42.338Z,13.18
2022-10-07T06:31:46.200Z,13.38
2022-10-07T06:33:49.300Z,13.39
2022-10-07T06:35:59.789Z,13.30
2022-10-07T06:38:06.248Z,13.42
2022-10-07T06:40:11.878Z,13.50
2022-10-07T06:42:14.689Z,13.39
2022-10-07T06:44:17.304Z,13.50
2022-10-07T06:46:21.333Z,13.49
2022-10-07T06:48:24.068Z,13.59
2022-10-07T06:50:26.865Z,13.69
2022-10-07T06:52:29.598Z,13.72
2022-10-07T06:54:32.241Z,13.64
2022-10-07T06:56:36.219Z,13.70
2022-10-07T06:58:38.851Z,14.02
2022-10-07T07:00:41.540Z,14.31
2022-10-07T07:02:44.690Z,14.76
2022-10-07T07:04:47.398Z,14.69
2022-10-07T07:06:50.096Z,14.78
2022-10-07T07:08:52.729Z,14.53
2022-10-07T07:10:55.559Z,14.60
2022-10-07T07:15:08.611Z,14.52
2022-10-07T07:17:11.334Z,14.49
2022-10-07T07:19:15.377Z,14.32
2022-10-07T07:21:17.967Z,14.50
2022-10-07T07:23:20.619Z,14.51
2022-10-07T07:25:23.223Z,14.48
2022-10-07T07:27:25.885Z,14.60
2022-10-07T07:29:29.939Z,14.58
2022-10-07T07:31:34.445Z,14.74
2022-10-07T07:33:38.419Z,14.55
2022-10-07T07:35:43.424Z,14.65
2022-10-07T07:37:47.673Z,14.78
2022-10-07T07:39:50.755Z,14.98
2022-10-07T07:41:53.814Z,15.07
2022-10-07T07:43:59.117Z,15.11
2022-10-07T07:46:03.549Z,15.31
2022-10-07T07:48:06.259Z,15.29
2022-10-07T07:50:09.942Z,15.22
2022-10-07T07:52:12.618Z,15.52
2022-10-07T07:54:15.917Z,15.45
2022-10-07T07:56:19.644Z,15.47
2022-10-07T07:58:22.779Z,15.55
2022-10-07T08:00:25.413Z,15.63
2022-10-07T08:02:29.514Z,15.87
2022-10-07T08:04:32.281Z,16.08
2022-10-07T08:06:34.994Z,15.98
2022-10-07T08:08:37.637Z,16.33
2022-10-07T08:10:42.797Z,16.71
2022-10-07T08:12:45.452Z,16.69
2022-10-07T08:14:48.127Z,16.81
2022-10-07T08:16:51.376Z,16.64
2022-10-07T08:18:56.612Z,16.69
2022-10-07T08:21:00.020Z,16.85
2022-10-07T08:23:02.781Z,17.31
2022-10-07T08:25:06.093Z,16.91
2022-10-07T08:27:08.694Z,17.32
2022-10-07T08:29:11.332Z,17.35
2022-10-07T08:31:17.137Z,17.04
2022-10-07T08:33:20.652Z,17.88
2022-10-07T08:35:24.619Z,17.97
2022-10-07T08:37:27.261Z,18.73
2022-10-07T08:39:31.075Z,17.97
2022-10-07T08:41:53.811Z,17.56
2022-10-07T08:44:00.997Z,18.14
2022-10-07T08:46:05.924Z,17.91
2022-10-07T08:48:14.118Z,18.76
2022-10-07T08:50:21.588Z,19.34
2022-10-07T08:52:33.581Z,19.35
2022-10-07T08:54:36.192Z,19.76
2022-10-07T08:56:38.924Z,18.78
2022-10-07T08:58:55.990Z,19.13
2022-10-07T09:01:04.274Z,19.29
2022-10-07T09:03:15.596Z,19.67
2022-10-07T09:05:23.437Z,20.01
2022-10-07T09:07:34.995Z,19.77
2022-10-07T09:09:42.172Z,20.41
2022-10-07T09:11:47.934Z,21.12
2022-10-07T09:13:55.556Z,21.33
2022-10-07T09:16:01.029Z,20.23
2022-10-07T09:18:10.275Z,20.95
2022-10-07T09:20:16.756Z,22.96
2022-10-07T09:22:21.293Z,21.33
2022-10-07T09:24:28.112Z,21.84
2022-10-07T09:26:31.144Z,20.59
2022-10-07T09:28:34.513Z,21.31
2022-10-07T09:30:37.163Z,21.23
2022-10-07T09:32:42.051Z,21.11
2022-10-07T09:34:44.890Z,22.41
2022-10-07T09:37:14.007Z,21.52
2022-10-07T09:39:23.585Z,22.68
2022-10-07T09:41:32.104Z,22.11
2022-10-07T09:43:35.971Z,20.59
2022-10-07T09:45:39.932Z,21.66
2022-10-07T09:47:43.035Z,20.95
2022-10-07T09:49:51.409Z,21.19
2022-10-07T09:52:00.130Z,21.27
2022-10-07T09:54:05.176Z,22.25
2022-10-07T09:56:28.734Z,22.65
2022-10-07T09:58:33.507Z,22.51
2022-10-07T10:00:43.882Z,20.70
2022-10-07T10:02:50.065Z,19.85
2022-10-07T10:04:53.508Z,22.86
2022-10-07T10:06:59.795Z,22.54
2022-10-07T10:09:02.257Z,23.46
2022-10-07T10:11:07.249Z,23.62
2022-10-07T10:13:29.023Z,21.51
2022-10-07T10:15:42.547Z,21.26
2022-10-07T10:17:45.277Z,22.53
2022-10-07T10:19:47.902Z,20.97
2022-10-07T10:21:52.737Z,20.35
2022-10-07T10:23:58.029Z,21.71
2022-10-07T10:26:31.131Z,20.87
2022-10-07T10:28:44.890Z,20.35
2022-10-07T10:30:55.737Z,19.87
2022-10-07T10:33:20.101Z,19.86
2022-10-07T10:35:27.224Z,18.43
2022-10-07T10:37:44.103Z,18.62
2022-10-07T10:39:57.976Z,18.80
2022-10-07T10:42:05.480Z,18.66
2022-10-07T10:44:22.445Z,18.50
2022-10-07T10:46:40.451Z,18.34
2022-10-07T10:48:44.685Z,18.85
2022-10-07T10:50:58.699Z,18.63
2022-10-07T10:53:14.467Z,18.23
2022-10-07T10:55:28.134Z,18.59
2022-10-07T10:57:39.106Z,18.62
2022-10-07T10:59:58.695Z,18.68
2022-10-07T11:02:19.987Z,18.82
2022-10-07T11:04:38.423Z,18.54
2022-10-07T11:06:44.513Z,18.29
2022-10-07T11:08:49.008Z,18.39
2022-10-07T11:10:57.080Z,18.15
2022-10-07T11:13:08.619Z,18.04
2022-10-07T11:15:19.491Z,18.23
2022-10-07T11:17:30.209Z,18.27
2022-10-07T11:19:37.432Z,18.45
2022-10-07T11:21:44.300Z,18.24
2022-10-07T11:23:54.767Z,18.19
2022-10-07T11:26:03.456Z,18.40
2022-10-07T11:28:17.954Z,18.45
2022-10-07T11:30:23.331Z,18.55
2022-10-07T11:32:32.126Z,18.35
2022-10-07T11:34:44.464Z,18.44
2022-10-07T11:36:54.489Z,18.55
2022-10-07T11:38:57.074Z,18.71
2022-10-07T11:41:04.268Z,18.74
2022-10-07T11:43:15.386Z,18.29
2022-10-07T11:45:23.468Z,18.64
2022-10-07T11:47:36.130Z,18.42
2022-10-07T11:49:43.238Z,18.68
2022-10-07T11:51:54.246Z,18.77
2022-10-07T11:54:02.953Z,18.36
2022-10-07T11:56:16.322Z,18.63
2022-10-07T11:58:25.368Z,18.92
2022-10-07T12:00:31.650Z,18.65
2022-10-07T12:02:49.561Z,19.45
2022-10-07T12:04:52.455Z,19.61
2022-10-07T12:07:32.543Z,20.00
2022-10-07T12:09:54.950Z,19.83
2022-10-07T12:11:57.769Z,20.12
2022-10-07T12:14:44.096Z,19.52
2022-10-07T12:16:56.158Z,19.25
2022-10-07T12:19:20.945Z,20.18
2022-10-07T12:21:25.863Z,20.14
2022-10-07T12:23:49.485Z,20.21
2022-10-07T12:25:53.705Z,19.32
2022-10-07T12:27:57.062Z,20.17
2022-10-07T12:30:02.455Z,19.92
2022-10-07T12:32:46.386Z,20.47
2022-10-07T12:34:49.314Z,19.71
2022-10-07T12:36:52.054Z,19.84
2022-10-07T12:39:27.009Z,20.47
2022-10-07T12:41:30.820Z,20.75
2022-10-07T12:43:47.274Z,21.16
2022-10-07T12:45:50.858Z,20.73
2022-10-07T12:47:59.040Z,19.31
2022-10-07T12:50:04.838Z,18.96
2022-10-07T12:52:12.608Z,20.40
2022-10-07T12:54:20.166Z,19.75
2022-10-07T12:56:28.140Z,19.81
2022-10-07T12:59:13.984Z,19.30
2022-10-07T13:01:33.576Z,19.20
2022-10-07T13:04:10.314Z,20.13
2022-10-07T13:06:47.616Z,20.10
2022-10-07T13:09:24.900Z,19.63
2022-10-07T13:12:04.101Z,18.80
2022-10-07T13:14:18.429Z,19.94
2022-10-07T13:16:31.882Z,20.21
2022-10-07T13:18:41.706Z,19.89
2022-10-07T13:21:00.946Z,19.94
2022-10-07T13:23:12.087Z,19.27
2022-10-07T13:25:15.937Z,19.41
2022-10-07T13:27:21.109Z,20.13
2022-10-07T13:29:25.707Z,20.17
2022-10-07T13:31:30.875Z,20.18
2022-10-07T13:33:34.174Z,19.76
2022-10-07T13:35:39.686Z,20.15
2022-10-07T13:37:48.034Z,20.32
2022-10-07T13:39:50.774Z,20.40
2022-10-07T13:41:56.330Z,19.69
2022-10-07T13:44:01.582Z,19.70
2022-10-07T13:46:07.112Z,19.91
2022-10-07T13:48:17.020Z,20.01
2022-10-07T13:50:23.468Z,19.96
2022-10-07T13:52:30.307Z,19.20
2022-10-07T13:54:35.219Z,19.50
2022-10-07T13:56:40.803Z,18.92
2022-10-07T13:58:43.651Z,19.33
2022-10-07T14:00:48.912Z,18.63
2022-10-07T14:02:52.679Z,18.67
2022-10-07T14:05:02.092Z,19.10
2022-10-07T14:07:16.721Z,18.82
2022-10-07T14:09:22.802Z,18.98
2022-10-07T14:11:26.914Z,19.00
2022-10-07T14:13:30.273Z,19.06
2022-10-07T14:15:36.265Z,18.93
2022-10-07T14:17:44.120Z,18.97
2022-10-07T14:19:53.473Z,18.62
2022-10-07T14:21:56.174Z,18.28
2022-10-07T14:23:58.908Z,18.14
2022-10-07T14:26:04.273Z,18.21
2022-10-07T14:28:17.795Z,18.51
2022-10-07T14:30:56.481Z,18.68
2022-10-07T14:33:32.842Z,18.55
2022-10-07T14:35:37.018Z,18.20
2022-10-07T14:37:39.813Z,18.09
2022-10-07T14:39:44.150Z,17.98
2022-10-07T14:41:46.861Z,18.09
2022-10-07T14:43:52.964Z,18.16
2022-10-07T14:45:55.701Z,18.30
2022-10-07T14:47:58.551Z,18.20
2022-10-07T14:50:01.655Z,18.15
2022-10-07T14:52:06.226Z,17.97
2022-10-07T14:54:09.176Z,18.04
2022-10-07T14:56:15.480Z,17.88
2022-10-07T14:58:18.152Z,17.73
2022-10-07T15:00:24.099Z,17.96
2022-10-07T15:02:27.399Z,17.93
2022-10-07T15:04:30.258Z,18.06
2022-10-07T15:06:34.716Z,18.19
2022-10-07T15:08:37.355Z,18.04
2022-10-07T15:10:41.177Z,18.11
2022-10-07T15:12:44.972Z,18.19
2022-10-07T15:14:47.985Z,18.09
2022-10-07T15:16:52.026Z,18.09
2022-10-07T15:18:55.138Z,18.04
2022-10-07T15:20:58.639Z,17.62
2022-10-07T15:23:02.604Z,17.65
2022-10-07T15:25:06.554Z,17.93
2022-10-07T15:27:09.982Z,18.00
2022-10-07T15:29:13.313Z,17.93
2022-10-07T15:31:17.641Z,17.55
2022-10-07T15:33:21.983Z,17.56
2022-10-07T15:35:26.976Z,17.40
2022-10-07T15:37:29.821Z,17.59
2022-10-07T15:39:37.450Z,17.54
2022-10-07T15:41:43.741Z,17.50
2022-10-07T15:43:46.570Z,17.44
2022-10-07T15:45:51.383Z,17.46
2022-10-07T15:47:59.545Z,17.23
2022-10-07T15:50:05.017Z,17.32
2022-10-07T15:52:09.101Z,17.43
2022-10-07T15:54:12.153Z,17.17
2022-10-07T15:56:14.964Z,17.30
2022-10-07T15:58:17.893Z,17.16
2022-10-07T16:00:21.801Z,17.11
2022-10-07T16:02:24.871Z,17.37
2022-10-07T16:04:28.412Z,17.09
2022-10-07T16:06:34.801Z,17.15
2022-10-07T16:08:37.676Z,17.09
2022-10-07T16:10:40.275Z,17.10
2022-10-07T16:12:43.281Z,17.02
2022-10-07T16:14:47.373Z,17.06
2022-10-07T16:16:50.741Z,17.06
2022-10-07T16:18:54.638Z,16.89
2022-10-07T16:20:57.333Z,17.15
2022-10-07T16:23:01.514Z,17.07
2022-10-07T16:25:04.290Z,16.87
2022-10-07T16:27:06.938Z,16.86
2022-10-07T16:29:31.810Z,16.77
2022-10-07T16:31:36.679Z,16.67
2022-10-07T16:33:39.431Z,16.77
2022-10-07T16:35:42.241Z,16.60
2022-10-07T16:37:47.818Z,16.54
2022-10-07T16:39:56.241Z,16.41
2022-10-07T16:41:59.801Z,16.35
2022-10-07T16:44:04.239Z,16.43
2022-10-07T16:46:09.270Z,16.32
2022-10-07T16:48:17.280Z,16.08
2022-10-07T16:50:20.942Z,16.16
2022-10-07T16:52:25.520Z,16.09
2022-10-07T16:54:30.000Z,16.10
2022-10-07T16:56:36.435Z,16.05
2022-10-07T16:58:39.962Z,15.96
2022-10-07T17:00:42.784Z,15.81
2022-10-07T17:02:45.586Z,15.85
2022-10-07T17:04:48.315Z,15.81
2022-10-07T17:06:51.241Z,15.71
2022-10-07T17:08:55.965Z,15.65
2022-10-07T17:10:58.806Z,15.56
2022-10-07T17:13:04.155Z,15.56
2022-10-07T17:15:07.327Z,15.62
2022-10-07T17:17:10.516Z,15.51
2022-10-07T17:19:14.855Z,15.52
2022-10-07T17:21:18.878Z,15.44
2022-10-07T17:23:25.910Z,15.49
2022-10-07T17:25:28.551Z,15.36
2022-10-07T17:27:31.185Z,15.34
2022-10-07T17:29:38.441Z,15.45
2022-10-07T17:31:42.582Z,15.40
2022-10-07T17:33:45.456Z,15.42
2022-10-07T17:35:48.119Z,15.33
2022-10-07T17:37:50.986Z,15.33
2022-10-07T17:39:53.587Z,15.27
2022-10-07T17:41:57.309Z,15.30
2022-10-07T17:44:01.586Z,15.48
2022-10-07T17:46:09.096Z,15.46
2022-10-07T17:48:15.368Z,15.38
2022-10-07T17:50:18.076Z,15.22
2022-10-07T17:52:25.180Z,15.19
2022-10-07T17:54:29.886Z,15.11
2022-10-07T17:56:34.201Z,15.34
2022-10-07T17:58:38.195Z,15.25
2022-10-07T18:00:40.937Z,15.03
2022-10-07T18:02:45.011Z,14.88
2022-10-07T18:04:47.613Z,14.87
2022-10-07T18:06:50.436Z,14.85
2022-10-07T18:08:53.380Z,14.81
2022-10-07T18:10:56.047Z,14.89
2022-10-07T18:13:16.600Z,14.94
2022-10-07T18:15:21.184Z,14.77
2022-10-07T18:17:24.447Z,14.91
2022-10-07T18:19:29.508Z,14.89
2022-10-07T18:21:32.535Z,14.98
2022-10-07T18:23:36.429Z,14.83
2022-10-07T18:25:39.621Z,14.66
2022-10-07T18:27:43.456Z,14.61
2022-10-07T18:29:46.377Z,14.59
2022-10-07T18:31:49.014Z,14.78
2022-10-07T18:33:52.221Z,14.69
2022-10-07T18:36:01.883Z,14.64
2022-10-07T18:38:04.799Z,14.85
2022-10-07T18:40:08.387Z,14.69
2022-10-07T18:42:11.117Z,14.67
2022-10-07T18:44:14.335Z,14.53
2022-10-07T18:46:19.604Z,14.63
2022-10-07T18:48:22.224Z,14.77
2022-10-07T18:50:28.127Z,14.58
2022-10-07T18:52:35.473Z,14.69
2022-10-07T18:54:38.130Z,14.71
2022-10-07T18:56:41.541Z,14.70
2022-10-07T18:58:46.932Z,14.62
2022-10-07T19:00:49.703Z,14.47
2022-10-07T19:02:52.590Z,14.37
2022-10-07T19:04:56.225Z,14.28
2022-10-07T19:06:59.048Z,14.27
2022-10-07T19:09:08.350Z,14.28
2022-10-07T19:11:13.164Z,14.23
2022-10-07T19:13:45.465Z,14.26
2022-10-07T19:15:48.089Z,14.31
2022-10-07T19:17:50.697Z,14.31
2022-10-07T19:19:53.453Z,14.32
2022-10-07T19:21:57.460Z,14.27
2022-10-07T19:24:01.568Z,14.32
2022-10-07T19:26:05.424Z,14.31
2022-10-07T19:28:08.086Z,14.26
2022-10-07T19:30:11.387Z,14.24
2022-10-07T19:32:15.006Z,14.30
2022-10-07T19:34:19.943Z,14.23
2022-10-07T19:36:23.479Z,14.29
2022-10-07T19:38:27.128Z,14.30
2022-10-07T19:40:29.939Z,14.29
2022-10-07T19:42:34.886Z,14.23
2022-10-07T19:44:38.493Z,14.30
2022-10-07T19:46:41.451Z,14.20
2022-10-07T19:48:44.279Z,14.28
2022-10-07T19:50:47.024Z,14.29
2022-10-07T19:52:50.595Z,14.13
2022-10-07T19:54:54.840Z,14.20
2022-10-07T19:56:57.646Z,14.20
2022-10-07T19:59:05.364Z,14.23
2022-10-07T20:01:10.438Z,14.14
2022-10-07T20:03:13.265Z,14.18
2022-10-07T20:05:16.116Z,14.14
2022-10-07T20:07:19.099Z,14.08
2022-10-07T20:09:22.459Z,14.07
2022-10-07T20:11:27.753Z,14.06
2022-10-07T20:13:32.608Z,14.08
2022-10-07T20:15:37.136Z,14.04
2022-10-07T20:17:39.801Z,13.91
2022-10-07T20:19:42.508Z,13.86
2022-10-07T20:21:45.345Z,13.89
2022-10-07T20:23:49.128Z,14.04
2022-10-07T20:25:51.874Z,13.95
2022-10-07T20:27:54.663Z,13.84
2022-10-07T20:30:02.309Z,13.91
2022-10-07T20:32:06.445Z,13.89
2022-10-07T20:34:12.652Z,13.79
2022-10-07T20:36:18.766Z,13.74
2022-10-07T20:38:21.473Z,13.73
2022-10-07T20:40:41.818Z,13.75
2022-10-07T20:42:46.999Z,13.68
2022-10-07T20:44:50.617Z,13.75
2022-10-07T20:46:53.312Z,13.75
2022-10-07T20:48:57.307Z,13.62
2022-10-07T20:51:08.316Z,13.64
2022-10-07T20:53:12.478Z,13.63
2022-10-07T20:55:15.314Z,13.77
2022-10-07T20:57:19.357Z,13.65
2022-10-07T20:59:22.260Z,13.60
2022-10-07T21:01:25.291Z,13.53
2022-10-07T21:03:29.730Z,13.58
2022-10-07T21:05:33.763Z,13.52
2022-10-07T21:07:36.376Z,13.56
2022-10-07T21:09:39.921Z,13.59
2022-10-07T21:11:42.578Z,13.52
2022-10-07T21:13:45.238Z,13.50
2022-10-07T21:15:47.864Z,13.54
2022-10-07T21:17:50.463Z,13.58
2022-10-07T21:19:53.256Z,13.51
2022-10-07T21:21:57.228Z,13.52
2022-10-07T21:23:59.894Z,13.52
2022-10-07T21:26:03.910Z,13.47
2022-10-07T21:28:06.572Z,13.65
2022-10-07T21:30:10.370Z,13.58
2022-10-07T21:32:13.718Z,13.54
2022-10-07T21:34:16.611Z,13.58
2022-10-07T21:36:21.104Z,13.58
2022-10-07T21:38:25.103Z,13.52
2022-10-07T21:40:30.398Z,13.49
2022-10-07T21:42:33.193Z,13.53
2022-10-07T21:44:35.805Z,13.48
2022-10-07T21:46:39.958Z,13.39
2022-10-07T21:48:42.906Z,13.47
2022-10-07T21:50:53.843Z,13.44
2022-10-07T21:52:56.501Z,13.45
2022-10-07T21:55:00.612Z,13.41
2022-10-07T21:57:04.480Z,13.47
2022-10-07T21:59:07.149Z,13.42
2022-10-07T22:01:13.594Z,13.36
2022-10-07T22:03:16.244Z,13.44
2022-10-07T22:05:18.980Z,13.46
2022-10-07T22:07:39.275Z,13.40
2022-10-07T22:09:42.028Z,13.30
2022-10-07T22:11:46.120Z,13.20
2022-10-07T22:13:51.582Z,13.28
2022-10-07T22:15:54.321Z,13.26
2022-10-07T22:17:57.334Z,13.38
2022-10-07T22:20:00.221Z,13.43
2022-10-07T22:22:02.900Z,13.27
2022-10-07T22:24:07.082Z,13.48
2022-10-07T22:26:13.481Z,13.29
2022-10-07T22:28:17.661Z,13.33
2022-10-07T22:30:21.123Z,13.35
2022-10-07T22:32:23.717Z,13.37
2022-10-07T22:34:43.695Z,13.40
2022-10-07T22:36:46.455Z,13.45
2022-10-07T22:38:49.692Z,13.39
2022-10-07T22:40:52.960Z,13.34
2022-10-07T22:42:55.646Z,13.31
2022-10-07T22:44:59.721Z,13.35
2022-10-07T22:47:02.678Z,13.39
2022-10-07T22:49:05.367Z,13.36
2022-10-07T22:51:10.361Z,13.31
2022-10-07T22:53:13.054Z,13.34
2022-10-07T22:55:16.706Z,13.39
2022-10-07T22:57:19.348Z,13.42
2022-10-07T22:59:22.119Z,13.44
2022-10-07T23:01:28.495Z,13.62
2022-10-07T23:03:31.217Z,13.67
2022-10-07T23:05:37.029Z,13.56
2022-10-07T23:07:39.721Z,13.52
2022-10-07T23:09:42.381Z,13.57
2022-10-07T23:11:45.655Z,13.49
2022-10-07T23:13:48.345Z,13.59
2022-10-07T23:15:56.293Z,13.62
2022-10-07T23:18:00.619Z,13.61
2022-10-07T23:20:03.542Z,13.62
2022-10-07T23:22:07.268Z,13.68
2022-10-07T23:24:14.366Z,13.83
2022-10-07T23:26:19.775Z,13.95
2022-10-07T23:28:23.686Z,13.90
2022-10-07T23:30:26.371Z,13.92
2022-10-07T23:32:29.008Z,13.91
2022-10-07T23:34:33.045Z,13.95
2022-10-07T23:36:35.676Z,13.91
2022-10-07T23:38:40.015Z,14.03
2022-10-07T23:40:42.662Z,13.96
2022-10-07T23:42:46.585Z,14.06
2022-10-07T23:44:49.381Z,13.99
2022-10-07T23:46:52.109Z,14.07
2022-10-07T23:48:55.841Z,13.99
2022-10-07T23:50:59.859Z,14.03
2022-10-07T23:53:02.876Z,14.16
2022-10-07T23:55:06.219Z,14.13
2022-10-07T23:57:08.882Z,14.13
2022-10-07T23:59:11.954Z,14.12
